createdAt,value
2023-04-18T00:00:17.484Z,89.0485
2023-04-18T00:01:18.111Z,89.1664
2023-04-18T00:02:19.067Z,89.2516
2023-04-18T00:03:19.312Z,88.8923
2023-04-18T00:04:21.362Z,88.8266
2023-04-18T00:05:22.206Z,89.2106
2023-04-18T00:06:23.030Z,89.2406
2023-04-18T00:07:23.928Z,89.2198
2023-04-18T00:08:24.270Z,89.1100
2023-04-18T00:09:25.142Z,89.0407
2023-04-18T00:10:25.793Z,89.2059
2023-04-18T00:11:26.466Z,88.5779
2023-04-18T00:12:27.043Z,88.5224
2023-04-18T00:13:27.632Z,88.4320
2023-04-18T00:14:27.666Z,89.0275
2023-04-18T00:15:28.487Z,89.2640
2023-04-18T00:16:29.165Z,89.1353
2023-04-18T00:17:30.044Z,89.5196
2023-04-18T00:18:30.556Z,89.2163
2023-04-18T00:19:31.077Z,89.0035
2023-04-18T00:20:31.643Z,88.4587
2023-04-18T00:21:32.175Z,88.7625
2023-04-18T00:22:32.802Z,88.3424
2023-04-18T00:23:33.779Z,87.9316
2023-04-18T00:24:34.800Z,88.5533
2023-04-18T00:25:35.404Z,88.5350
2023-04-18T00:26:36.041Z,88.8848
2023-04-18T00:27:36.436Z,89.0647
2023-04-18T00:28:37.133Z,88.9175
2023-04-18T00:29:37.516Z,89.2022
2023-04-18T00:30:38.121Z,88.8380
2023-04-18T00:31:39.318Z,87.5534
2023-04-18T00:32:39.911Z,87.9055
2023-04-18T00:33:40.637Z,88.3583
2023-04-18T00:34:41.214Z,88.4219
2023-04-18T00:35:41.699Z,88.4437
2023-04-18T00:36:42.260Z,88.0346
2023-04-18T00:37:42.753Z,88.0729
2023-04-18T00:38:43.298Z,88.4222
2023-04-18T00:39:43.814Z,88.4280
2023-04-18T00:40:44.198Z,88.0149
2023-04-18T00:41:44.807Z,88.0603
2023-04-18T00:42:45.378Z,87.7940
2023-04-18T00:43:45.794Z,88.0441
2023-04-18T00:44:46.828Z,87.8797
2023-04-18T00:45:47.215Z,88.3792
2023-04-18T00:46:48.415Z,88.6308
2023-04-18T00:47:49.289Z,88.4732
2023-04-18T00:48:49.996Z,88.5788
2023-04-18T00:49:50.881Z,88.1278
2023-04-18T00:50:51.549Z,88.3057
2023-04-18T00:51:52.029Z,88.6996
2023-04-18T00:52:52.636Z,88.6540
2023-04-18T00:53:53.106Z,88.7294
2023-04-18T00:54:54.227Z,88.6573
2023-04-18T00:55:54.856Z,88.4013
2023-04-18T00:56:55.330Z,88.4692
2023-04-18T00:57:55.883Z,88.7071
2023-04-18T00:58:56.453Z,88.2643
2023-04-18T00:59:56.843Z,88.0009
2023-04-18T01:00:57.435Z,88.1247
2023-04-18T01:01:58.110Z,88.4058
2023-04-18T01:02:58.362Z,88.4329
2023-04-18T01:03:58.449Z,88.5611
2023-04-18T01:04:59.164Z,88.6255
2023-04-18T01:05:59.850Z,88.6732
2023-04-18T01:07:00.416Z,88.3416
2023-04-18T01:08:00.987Z,88.4180
2023-04-18T01:09:01.727Z,88.5943
2023-04-18T01:10:02.471Z,88.1230
2023-04-18T01:11:02.850Z,87.4573
2023-04-18T01:12:03.424Z,87.5903
2023-04-18T01:13:03.849Z,88.2371
2023-04-18T01:14:04.354Z,88.5200
2023-04-18T01:15:04.885Z,89.1577
2023-04-18T01:16:05.503Z,88.2987
2023-04-18T01:17:06.685Z,88.0159
2023-04-18T01:18:07.452Z,88.0481
2023-04-18T01:19:07.907Z,88.8770
2023-04-18T01:20:08.566Z,88.7103
2023-04-18T01:21:09.306Z,88.9268
2023-04-18T01:22:09.901Z,88.4626
2023-04-18T01:23:10.461Z,88.3227
2023-04-18T01:24:11.154Z,88.4316
2023-04-18T01:25:11.537Z,88.5770
2023-04-18T01:26:12.217Z,88.5183
2023-04-18T01:27:12.798Z,88.2979
2023-04-18T01:28:13.393Z,88.0915
2023-04-18T01:29:13.762Z,88.4784
2023-04-18T01:30:14.823Z,88.6966
2023-04-18T01:31:15.498Z,88.4954
2023-04-18T01:32:16.102Z,88.5925
2023-04-18T01:33:17.039Z,88.3178
2023-04-18T01:34:17.785Z,88.3065
2023-04-18T01:35:18.297Z,88.6660
2023-04-18T01:36:18.853Z,88.9044
2023-04-18T01:37:19.263Z,88.5050
2023-04-18T01:38:19.751Z,88.4489
2023-04-18T01:39:20.452Z,88.3800
2023-04-18T01:40:20.876Z,88.2155
2023-04-18T01:41:21.477Z,88.2724
2023-04-18T01:42:22.411Z,88.6543
2023-04-18T01:43:22.849Z,88.4428
2023-04-18T01:44:23.448Z,88.3440
2023-04-18T01:45:23.894Z,88.6254
2023-04-18T01:46:24.678Z,87.7122
2023-04-18T01:47:25.704Z,87.8312
2023-04-18T01:48:26.235Z,87.9341
2023-04-18T01:49:26.869Z,88.2022
2023-04-18T01:50:27.439Z,88.0819
2023-04-18T01:51:27.864Z,88.2928
2023-04-18T01:52:28.612Z,88.4697
2023-04-18T01:53:28.941Z,88.9155
2023-04-18T01:54:29.963Z,89.0005
2023-04-18T01:55:30.510Z,89.2126
2023-04-18T01:56:30.941Z,89.3173
2023-04-18T01:57:31.684Z,88.9380
2023-04-18T01:58:32.328Z,88.8481
2023-04-18T01:59:32.645Z,88.3454
2023-04-18T02:00:33.259Z,88.9455
2023-04-18T02:01:33.913Z,88.2292
2023-04-18T02:02:35.033Z,88.1315
2023-04-18T02:03:35.583Z,88.6370
2023-04-18T02:04:35.452Z,88.7189
2023-04-18T02:05:36.002Z,88.8564
2023-04-18T02:06:36.559Z,89.0030
2023-04-18T02:07:37.117Z,89.0732
2023-04-18T02:08:37.766Z,89.2605
2023-04-18T02:09:38.195Z,89.1379
2023-04-18T02:10:38.698Z,89.4163
2023-04-18T02:11:39.333Z,89.4708
2023-04-18T02:12:39.748Z,89.3483
2023-04-18T02:13:40.315Z,89.2630
2023-04-18T02:14:40.862Z,89.0173
2023-04-18T02:15:41.204Z,89.2606
2023-04-18T02:16:42.132Z,89.2892
2023-04-18T02:17:42.829Z,89.3668
2023-04-18T02:18:43.539Z,89.2420
2023-04-18T02:19:44.177Z,89.2314
2023-04-18T02:20:44.785Z,88.9844
2023-04-18T02:21:45.335Z,89.0627
2023-04-18T02:22:45.904Z,89.2485
2023-04-18T02:23:46.409Z,89.0276
2023-04-18T02:24:47.230Z,89.1896
2023-04-18T02:25:47.730Z,89.1675
2023-04-18T02:26:48.484Z,89.1560
2023-04-18T02:27:49.214Z,89.2231
2023-04-18T02:28:49.989Z,89.5095
2023-04-18T02:29:50.637Z,89.4830
2023-04-18T02:30:51.590Z,89.2891
2023-04-18T02:31:52.278Z,88.7410
2023-04-18T02:32:53.465Z,89.1984
2023-04-18T02:33:53.957Z,89.4946
2023-04-18T02:34:54.756Z,89.6304
2023-04-18T02:35:55.358Z,89.4310
2023-04-18T02:36:55.815Z,89.2617
2023-04-18T02:37:56.433Z,89.4149
2023-04-18T02:38:56.981Z,89.3069
2023-04-18T02:39:57.377Z,88.9446
2023-04-18T02:40:58.040Z,89.0494
2023-04-18T02:41:58.415Z,89.0622
2023-04-18T02:42:58.990Z,89.2835
2023-04-18T02:43:59.633Z,89.5802
2023-04-18T02:45:00.117Z,89.5868
2023-04-18T02:46:00.873Z,89.5105
2023-04-18T02:47:01.689Z,89.5109
2023-04-18T02:48:02.679Z,89.8215
2023-04-18T02:49:03.556Z,89.5806
2023-04-18T02:50:04.155Z,89.5198
2023-04-18T02:51:04.679Z,89.2726
2023-04-18T02:52:05.301Z,89.4102
2023-04-18T02:53:05.736Z,89.7448
2023-04-18T02:54:06.288Z,90.1147
2023-04-18T02:55:06.897Z,90.0451
2023-04-18T02:56:07.414Z,89.9630
2023-04-18T02:57:08.134Z,89.6171
2023-04-18T02:58:08.744Z,89.4965
2023-04-18T02:59:09.283Z,89.0056
2023-04-18T03:00:09.883Z,89.1598
2023-04-18T03:01:10.381Z,89.2938
2023-04-18T03:02:11.336Z,89.3340
2023-04-18T03:03:11.368Z,89.4455
2023-04-18T03:04:12.325Z,89.2778
2023-04-18T03:05:12.705Z,89.3092
2023-04-18T03:06:13.388Z,89.4498
2023-04-18T03:07:13.766Z,89.3226
2023-04-18T03:08:14.560Z,89.5157
2023-04-18T03:09:14.939Z,89.5644
2023-04-18T03:10:15.542Z,89.7185
2023-04-18T03:11:16.087Z,89.5813
2023-04-18T03:12:16.522Z,89.4787
2023-04-18T03:13:17.108Z,89.7705
2023-04-18T03:14:17.736Z,89.6711
2023-04-18T03:15:18.122Z,89.3365
2023-04-18T03:16:18.986Z,89.1341
2023-04-18T03:17:19.744Z,89.5648
2023-04-18T03:18:20.321Z,89.7065
2023-04-18T03:19:21.059Z,89.4991
2023-04-18T03:20:21.547Z,89.3877
2023-04-18T03:21:22.144Z,89.3135
2023-04-18T03:22:22.813Z,89.5015
2023-04-18T03:23:23.314Z,89.3331
2023-04-18T03:24:23.819Z,89.2292
2023-04-18T03:25:24.183Z,89.2261
2023-04-18T03:26:24.710Z,89.3611
2023-04-18T03:27:25.258Z,89.7103
2023-04-18T03:28:25.776Z,89.7857
2023-04-18T03:29:26.409Z,89.5432
2023-04-18T03:30:27.074Z,89.5519
2023-04-18T03:31:27.767Z,89.6672
2023-04-18T03:32:28.658Z,89.7421
2023-04-18T03:33:29.309Z,89.4546
2023-04-18T03:34:29.751Z,89.4457
2023-04-18T03:35:30.430Z,89.1415
2023-04-18T03:36:30.987Z,89.1795
2023-04-18T03:37:31.523Z,89.3200
2023-04-18T03:38:32.107Z,89.2648
2023-04-18T03:39:32.545Z,89.5551
2023-04-18T03:40:33.141Z,89.8337
2023-04-18T03:41:33.682Z,90.0018
2023-04-18T03:42:34.336Z,90.0034
2023-04-18T03:43:34.991Z,89.6484
2023-04-18T03:44:36.245Z,89.6099
2023-04-18T03:45:36.825Z,89.7579
2023-04-18T03:46:38.085Z,89.9188
2023-04-18T03:47:38.997Z,89.8181
2023-04-18T03:48:40.396Z,89.2109
2023-04-18T03:50:40.259Z,89.8586
2023-04-18T03:51:40.971Z,89.9337
2023-04-18T03:52:41.371Z,89.7531
2023-04-18T03:53:41.734Z,89.4617
2023-04-18T03:54:42.886Z,89.5370
2023-04-18T03:55:43.294Z,89.7899
2023-04-18T03:56:43.978Z,89.6254
2023-04-18T03:57:44.478Z,89.5009
2023-04-18T03:58:44.906Z,89.4706
2023-04-18T03:59:47.321Z,89.7938
2023-04-18T04:00:45.772Z,89.7438
2023-04-18T04:01:46.290Z,89.4708
2023-04-18T04:02:46.812Z,89.9328
2023-04-18T04:03:47.443Z,89.8516
2023-04-18T04:04:47.505Z,89.4898
2023-04-18T04:05:48.245Z,89.4374
2023-04-18T04:06:48.945Z,89.5717
2023-04-18T04:07:49.589Z,89.3980
2023-04-18T04:08:50.145Z,89.5515
2023-04-18T04:09:50.761Z,89.2334
2023-04-18T04:10:51.184Z,88.9147
2023-04-18T04:11:51.674Z,89.2221
2023-04-18T04:12:52.282Z,89.2233
2023-04-18T04:13:52.720Z,89.1013
2023-04-18T04:14:53.930Z,89.2955
2023-04-18T04:15:54.487Z,89.5244
2023-04-18T04:16:55.307Z,89.2258
2023-04-18T04:17:56.187Z,89.5127
2023-04-18T04:18:56.949Z,89.1991
2023-04-18T04:19:57.359Z,89.3067
2023-04-18T04:20:57.939Z,89.6458
2023-04-18T04:21:58.346Z,89.6320
2023-04-18T04:22:58.948Z,89.6297
2023-04-18T04:23:59.588Z,89.8015
2023-04-18T04:25:00.304Z,89.8768
2023-04-18T04:26:00.912Z,89.8395
2023-04-18T04:27:01.557Z,89.8301
2023-04-18T04:28:02.532Z,89.7568
2023-04-18T04:29:03.201Z,90.0116
2023-04-18T04:30:03.931Z,89.3315
2023-04-18T04:31:05.025Z,89.8522
2023-04-18T04:32:05.159Z,89.7266
2023-04-18T04:33:06.129Z,89.6469
2023-04-18T04:36:07.374Z,89.7809
2023-04-18T04:37:08.144Z,89.7682
2023-04-18T04:38:08.718Z,89.5821
2023-04-18T04:39:09.454Z,89.7118
2023-04-18T04:40:10.669Z,89.5521
2023-04-18T04:41:11.593Z,89.6384
2023-04-18T04:42:12.804Z,89.8559
2023-04-18T04:43:13.888Z,89.6102
2023-04-18T04:44:14.851Z,89.7253
2023-04-18T04:45:15.429Z,89.7747
2023-04-18T04:46:16.210Z,90.1446
2023-04-18T04:47:16.801Z,89.8277
2023-04-18T04:48:17.034Z,89.3587
2023-04-18T04:49:17.935Z,89.3453
2023-04-18T04:50:18.869Z,89.4750
2023-04-18T04:51:19.674Z,89.6861
2023-04-18T04:52:20.373Z,89.8032
2023-04-18T04:53:21.000Z,89.8776
2023-04-18T04:54:21.519Z,89.7466
2023-04-18T04:55:21.985Z,89.8229
2023-04-18T04:56:22.932Z,89.5116
2023-04-18T04:57:23.615Z,89.1880
2023-04-18T04:58:24.155Z,88.9739
2023-04-18T04:59:24.792Z,89.2045
2023-04-18T05:00:25.606Z,89.2946
2023-04-18T05:01:26.423Z,89.5928
2023-04-18T05:02:26.857Z,89.5841
2023-04-18T05:03:28.747Z,89.2822
2023-04-18T05:04:29.097Z,89.1807
2023-04-18T05:05:30.202Z,89.2232
2023-04-18T05:06:30.846Z,89.3479
2023-04-18T05:07:31.836Z,89.1953
2023-04-18T05:08:32.683Z,89.5488
2023-04-18T05:09:33.267Z,89.9720
2023-04-18T05:10:33.901Z,90.1001
2023-04-18T05:11:34.585Z,89.9373
2023-04-18T05:12:35.184Z,89.8193
2023-04-18T05:13:36.160Z,89.6865
2023-04-18T05:14:36.553Z,89.8159
2023-04-18T05:15:37.463Z,89.7156
2023-04-18T05:16:37.709Z,89.9724
2023-04-18T05:17:38.745Z,90.0059
2023-04-18T05:18:39.478Z,89.8303
2023-04-18T05:19:40.340Z,89.8403
2023-04-18T05:20:41.013Z,89.7761
2023-04-18T05:21:41.731Z,89.7199
2023-04-18T05:22:43.033Z,89.8780
2023-04-18T05:23:42.859Z,89.6216
2023-04-18T05:24:43.056Z,89.8031
2023-04-18T05:25:43.713Z,89.8572
2023-04-18T05:26:44.697Z,89.8437
2023-04-18T05:27:45.946Z,89.8896
2023-04-18T05:28:46.802Z,89.8437
2023-04-18T05:29:47.579Z,89.7907
2023-04-18T05:30:48.912Z,89.8337
2023-04-18T05:31:49.906Z,89.6183
2023-04-18T05:32:50.312Z,89.5684
2023-04-18T05:33:50.334Z,89.3634
2023-04-18T05:34:51.460Z,89.6568
2023-04-18T05:35:53.496Z,89.6099
2023-04-18T05:36:53.668Z,89.5527
2023-04-18T05:37:54.476Z,89.6215
2023-04-18T05:38:55.371Z,89.5959
2023-04-18T05:39:55.938Z,89.1749
2023-04-18T05:40:56.290Z,89.2312
2023-04-18T05:41:56.724Z,89.2086
2023-04-18T05:42:57.911Z,89.2873
2023-04-18T05:44:05.261Z,89.4632
2023-04-18T05:45:02.438Z,89.3574
2023-04-18T05:48:04.054Z,89.4733
2023-04-18T05:49:04.813Z,89.7701
2023-04-18T05:50:05.567Z,89.9337
2023-04-18T05:51:06.487Z,89.6098
2023-04-18T05:52:07.678Z,89.1584
2023-04-18T05:53:08.531Z,89.3193
2023-04-18T05:54:09.151Z,89.5044
2023-04-18T05:55:09.147Z,89.2931
2023-04-18T05:56:09.647Z,89.3911
2023-04-18T05:57:10.696Z,89.4742
2023-04-18T05:58:11.356Z,89.4084
2023-04-18T05:59:11.957Z,89.2009
2023-04-18T06:00:12.666Z,89.0286
2023-04-18T06:01:13.889Z,89.3162
2023-04-18T06:02:14.722Z,89.2594
2023-04-18T06:03:16.047Z,89.1592
2023-04-18T06:04:16.809Z,89.1903
2023-04-18T06:05:17.253Z,88.7268
2023-04-18T06:06:17.934Z,88.5152
2023-04-18T06:07:18.386Z,88.5771
2023-04-18T06:08:19.212Z,88.7244
2023-04-18T06:09:19.852Z,89.0151
2023-04-18T06:10:20.556Z,89.0635
2023-04-18T06:11:21.403Z,89.1148
2023-04-18T06:12:22.324Z,89.2838
2023-04-18T06:13:22.993Z,88.8440
2023-04-18T06:14:23.828Z,89.0444
2023-04-18T06:15:25.050Z,89.0303
2023-04-18T06:16:25.974Z,88.8083
2023-04-18T06:17:25.972Z,88.8520
2023-04-18T06:18:26.915Z,88.8675
2023-04-18T06:19:27.100Z,88.7680
2023-04-18T06:20:28.323Z,88.6297
2023-04-18T06:21:28.897Z,88.9130
2023-04-18T06:22:29.982Z,88.9319
2023-04-18T06:23:30.609Z,89.0103
2023-04-18T06:24:31.357Z,89.1669
2023-04-18T06:25:31.005Z,89.2704
2023-04-18T06:26:31.502Z,88.6248
2023-04-18T06:27:34.535Z,88.1550
2023-04-18T06:28:35.388Z,88.2311
2023-04-18T06:29:36.855Z,88.3166
2023-04-18T06:30:36.220Z,88.5020
2023-04-18T06:31:37.082Z,88.3701
2023-04-18T06:32:37.932Z,88.5667
2023-04-18T06:33:38.618Z,88.2691
2023-04-18T06:34:39.866Z,88.8574
2023-04-18T06:35:40.505Z,88.7655
2023-04-18T06:36:41.153Z,88.3538
2023-04-18T06:37:41.389Z,88.6257
2023-04-18T06:38:42.077Z,88.4830
2023-04-18T06:39:42.772Z,88.5390
2023-04-18T06:40:43.518Z,88.6035
2023-04-18T06:41:44.265Z,87.9615
2023-04-18T06:42:44.756Z,87.9029
2023-04-18T06:44:01.572Z,87.7846
2023-04-18T06:44:46.870Z,87.5626
2023-04-18T06:45:47.602Z,87.9445
2023-04-18T06:46:47.677Z,88.3621
2023-04-18T06:47:48.725Z,88.2293
2023-04-18T06:48:50.434Z,88.8628
2023-04-18T06:49:49.849Z,88.3206
2023-04-18T06:50:50.594Z,88.0097
2023-04-18T06:51:51.220Z,87.9016
2023-04-18T06:52:51.798Z,87.9845
2023-04-18T06:53:52.578Z,87.8180
2023-04-18T06:54:53.379Z,87.6502
2023-04-18T06:55:54.132Z,87.9276
2023-04-18T06:56:55.303Z,87.9762
2023-04-18T06:57:56.516Z,88.0934
2023-04-18T06:58:57.321Z,87.8608
2023-04-18T06:59:58.553Z,87.8766
2023-04-18T07:00:59.191Z,87.8332
2023-04-18T07:02:00.129Z,87.7172
2023-04-18T07:03:00.733Z,87.6788
2023-04-18T07:04:00.928Z,87.8535
2023-04-18T07:05:01.336Z,87.8831
2023-04-18T07:06:01.887Z,87.8155
2023-04-18T07:07:02.691Z,88.2097
2023-04-18T07:08:03.351Z,88.2098
2023-04-18T07:09:04.107Z,88.0094
2023-04-18T07:10:04.679Z,88.3167
2023-04-18T07:11:04.699Z,87.9638
2023-04-18T07:12:05.200Z,88.0992
2023-04-18T07:13:05.751Z,88.0577
2023-04-18T07:14:06.656Z,87.6172
2023-04-18T07:15:07.717Z,87.5914
2023-04-18T07:16:08.377Z,87.5260
2023-04-18T07:17:09.054Z,87.5763
2023-04-18T07:18:10.036Z,87.3387
2023-04-18T07:19:10.939Z,87.2186
2023-04-18T07:20:12.987Z,87.1897
2023-04-18T07:21:12.436Z,87.2038
2023-04-18T07:22:13.100Z,86.9063
2023-04-18T07:23:13.597Z,87.0607
2023-04-18T07:24:14.509Z,87.3516
2023-04-18T07:25:15.385Z,87.0279
2023-04-18T07:26:15.619Z,86.7004
2023-04-18T07:27:16.353Z,86.9969
2023-04-18T07:28:17.208Z,87.2211
2023-04-18T07:29:17.675Z,87.0225
2023-04-18T07:30:18.470Z,86.5948
2023-04-18T07:31:19.331Z,86.1734
2023-04-18T07:32:20.080Z,86.5860
2023-04-18T07:33:20.895Z,86.5601
2023-04-18T07:34:21.497Z,86.9068
2023-04-18T07:35:22.119Z,86.3645
2023-04-18T07:36:22.889Z,86.6655
2023-04-18T07:37:23.549Z,86.2646
2023-04-18T07:38:24.191Z,86.0113
2023-04-18T07:39:24.818Z,85.9237
2023-04-18T07:40:25.305Z,86.0229
2023-04-18T07:41:26.032Z,86.2632
2023-04-18T07:42:26.551Z,86.1799
2023-04-18T07:43:26.689Z,85.9807
2023-04-18T07:44:26.864Z,86.0843
2023-04-18T07:45:27.257Z,86.2203
2023-04-18T07:46:27.606Z,86.2361
2023-04-18T07:47:32.242Z,86.2307
2023-04-18T07:48:31.432Z,85.9511
2023-04-18T07:49:32.530Z,86.2126
2023-04-18T07:50:33.251Z,86.1841
2023-04-18T07:51:33.673Z,86.0203
2023-04-18T07:52:34.628Z,85.9317
2023-04-18T07:53:35.275Z,86.0492
2023-04-18T07:54:35.728Z,85.7104
2023-04-18T07:55:36.322Z,85.4959
2023-04-18T07:56:36.785Z,85.4020
2023-04-18T07:57:37.478Z,85.4378
2023-04-18T07:58:38.148Z,85.7516
2023-04-18T07:59:39.316Z,85.2443
2023-04-18T08:00:39.377Z,85.3569
2023-04-18T08:01:39.996Z,85.0179
2023-04-18T08:02:41.328Z,84.8938
2023-04-18T08:03:41.267Z,84.1531
2023-04-18T08:04:41.884Z,84.1910
2023-04-18T08:05:43.021Z,84.2679
2023-04-18T08:06:43.849Z,83.7753
2023-04-18T08:07:44.798Z,83.8243
2023-04-18T08:08:45.609Z,83.6148
2023-04-18T08:09:46.771Z,83.6532
2023-04-18T08:10:47.185Z,83.7893
2023-04-18T08:11:47.874Z,82.9994
2023-04-18T08:12:48.606Z,82.7285
2023-04-18T08:13:49.318Z,83.1002
2023-04-18T08:14:50.235Z,82.4825
2023-04-18T08:15:50.966Z,82.9159
2023-04-18T08:16:51.804Z,82.7628
2023-04-18T08:17:52.388Z,82.4643
2023-04-18T08:18:53.093Z,82.7883
2023-04-18T08:19:53.703Z,82.2367
2023-04-18T08:20:54.198Z,82.1753
2023-04-18T08:21:54.887Z,81.9213
2023-04-18T08:23:06.135Z,82.0701
2023-04-18T08:24:01.983Z,82.8318
2023-04-18T08:25:05.547Z,82.3618
2023-04-18T08:26:03.792Z,82.0512
2023-04-18T08:27:04.186Z,82.2734
2023-04-18T08:28:04.882Z,81.6077
2023-04-18T08:29:05.046Z,82.1391
2023-04-18T08:30:05.868Z,82.5132
2023-04-18T08:31:06.580Z,82.8730
2023-04-18T08:32:07.484Z,83.1069
2023-04-18T08:33:08.635Z,83.1605
2023-04-18T08:34:09.271Z,83.1915
2023-04-18T08:35:09.938Z,83.1668
2023-04-18T08:36:10.559Z,83.3502
2023-04-18T08:37:11.077Z,83.5909
2023-04-18T08:38:11.524Z,83.6919
2023-04-18T08:39:12.212Z,83.5124
2023-04-18T08:40:13.283Z,83.2019
2023-04-18T08:41:13.773Z,83.0169
2023-04-18T08:42:14.485Z,82.2758
2023-04-18T08:43:14.994Z,82.3359
2023-04-18T08:44:15.741Z,82.4588
2023-04-18T08:45:16.723Z,82.4498
2023-04-18T08:46:16.973Z,81.9801
2023-04-18T08:47:18.050Z,81.9262
2023-04-18T08:48:19.102Z,81.8825
2023-04-18T08:49:20.173Z,81.7168
2023-04-18T08:50:20.375Z,81.4424
2023-04-18T08:51:20.450Z,81.2522
2023-04-18T08:52:21.023Z,80.8949
2023-04-18T08:53:21.936Z,80.7878
2023-04-18T08:54:22.483Z,80.2923
2023-04-18T08:55:23.357Z,80.7378
2023-04-18T08:56:23.959Z,80.3587
2023-04-18T08:57:24.502Z,80.8044
2023-04-18T08:58:25.409Z,80.1402
2023-04-18T08:59:26.501Z,80.5771
2023-04-18T09:00:27.587Z,81.1586
2023-04-18T09:01:28.382Z,81.4183
2023-04-18T09:02:29.345Z,80.8892
2023-04-18T09:03:29.938Z,81.2483
2023-04-18T09:04:30.826Z,80.9234
2023-04-18T09:05:32.110Z,80.9301
2023-04-18T09:06:32.238Z,80.9860
2023-04-18T09:07:32.953Z,80.8763
2023-04-18T09:08:34.221Z,80.6353
2023-04-18T09:09:35.008Z,80.8552
2023-04-18T09:10:36.787Z,80.2794
2023-04-18T09:11:36.548Z,80.0766
2023-04-18T09:12:37.255Z,79.7470
2023-04-18T09:13:38.439Z,80.0464
2023-04-18T09:14:38.916Z,79.6289
2023-04-18T09:15:39.631Z,79.8346
2023-04-18T09:16:40.783Z,79.6658
2023-04-18T09:17:41.597Z,79.2440
2023-04-18T09:18:42.348Z,79.2778
2023-04-18T09:19:42.752Z,79.0874
2023-04-18T09:20:43.355Z,79.3947
2023-04-18T09:21:44.008Z,79.3298
2023-04-18T09:22:44.844Z,79.0340
2023-04-18T09:23:45.546Z,79.2896
2023-04-18T09:24:46.796Z,79.7459
2023-04-18T09:25:47.797Z,79.8070
2023-04-18T09:26:48.547Z,79.8922
2023-04-18T09:27:48.912Z,79.9881
2023-04-18T09:28:51.219Z,79.5332
2023-04-18T09:29:50.129Z,79.3363
2023-04-18T09:30:50.747Z,79.0551
2023-04-18T09:31:51.693Z,78.5763
2023-04-18T09:32:52.227Z,78.7142
2023-04-18T09:33:53.221Z,78.6899
2023-04-18T09:34:53.908Z,78.3602
2023-04-18T09:35:54.850Z,77.6219
2023-04-18T09:36:55.805Z,77.8572
2023-04-18T09:37:56.857Z,78.4727
2023-04-18T09:38:57.529Z,78.8966
2023-04-18T09:39:58.302Z,79.0175
2023-04-18T09:40:59.080Z,78.9854
2023-04-18T09:41:59.414Z,78.9658
2023-04-18T09:43:00.180Z,78.7252
2023-04-18T09:44:00.682Z,78.8057
2023-04-18T09:45:01.373Z,78.3699
2023-04-18T09:46:02.424Z,77.5963
2023-04-18T09:47:03.195Z,78.0056
2023-04-18T09:48:03.916Z,77.9610
2023-04-18T09:49:04.614Z,77.9266
2023-04-18T09:50:05.922Z,77.5500
2023-04-18T09:51:06.446Z,78.2464
2023-04-18T09:52:07.079Z,78.8127
2023-04-18T09:53:07.477Z,79.6106
2023-04-18T09:54:08.462Z,79.2007
2023-04-18T09:55:08.718Z,79.2023
2023-04-18T09:56:09.408Z,78.7123
2023-04-18T09:57:10.353Z,78.5300
2023-04-18T09:58:10.899Z,78.0271
2023-04-18T09:59:11.590Z,77.1657
2023-04-18T10:00:12.406Z,78.0155
2023-04-18T10:01:12.494Z,77.3352
2023-04-18T10:02:13.761Z,77.0517
2023-04-18T10:03:14.846Z,76.8926
2023-04-18T10:04:15.725Z,76.5994
2023-04-18T10:05:17.244Z,76.1069
2023-04-18T10:06:16.407Z,76.5102
2023-04-18T10:07:17.025Z,76.6147
2023-04-18T10:08:17.592Z,76.6594
2023-04-18T10:09:18.014Z,76.7982
2023-04-18T10:10:18.644Z,76.6881
2023-04-18T10:11:20.320Z,76.2640
2023-04-18T10:12:19.890Z,76.4341
2023-04-18T10:13:20.641Z,76.4108
2023-04-18T10:14:21.836Z,76.3606
2023-04-18T10:15:22.476Z,75.9993
2023-04-18T10:16:23.459Z,75.7118
2023-04-18T10:17:23.481Z,75.2639
2023-04-18T10:18:24.609Z,75.4265
2023-04-18T10:19:24.534Z,76.0045
2023-04-18T10:20:25.101Z,75.9351
2023-04-18T10:21:25.639Z,75.6946
2023-04-18T10:22:26.218Z,75.0853
2023-04-18T10:23:28.095Z,75.6677
2023-04-18T10:24:27.512Z,74.5512
2023-04-18T10:25:28.045Z,74.5183
2023-04-18T10:26:28.693Z,74.5508
2023-04-18T10:27:29.346Z,75.0465
2023-04-18T10:28:29.840Z,75.3008
2023-04-18T10:29:30.805Z,75.5128
2023-04-18T10:30:31.218Z,75.9266
2023-04-18T10:31:32.250Z,76.2323
2023-04-18T10:32:32.902Z,75.9678
2023-04-18T10:33:33.669Z,76.2909
2023-04-18T10:34:33.463Z,76.8681
2023-04-18T10:35:33.486Z,76.9197
2023-04-18T10:36:34.972Z,76.8172
2023-04-18T10:38:34.758Z,76.7118
2023-04-18T10:39:35.326Z,77.2614
2023-04-18T10:40:36.093Z,76.7332
2023-04-18T10:41:36.048Z,76.9918
2023-04-18T10:43:00.314Z,76.0719
2023-04-18T10:44:00.553Z,76.3161
2023-04-18T10:45:01.093Z,76.8909
2023-04-18T10:46:01.754Z,76.9990
2023-04-18T10:47:02.680Z,76.4282
2023-04-18T10:48:03.062Z,76.5113
2023-04-18T10:49:03.219Z,75.8503
2023-04-18T10:50:08.431Z,75.4086
2023-04-18T10:51:09.113Z,75.3320
2023-04-18T10:52:11.766Z,75.7716
2023-04-18T10:53:10.501Z,75.4464
2023-04-18T10:54:11.030Z,76.0185
2023-04-18T10:55:12.266Z,75.8682
2023-04-18T10:56:12.938Z,75.6102
2023-04-18T10:57:13.500Z,75.2661
2023-04-18T10:58:14.177Z,75.5603
2023-04-18T10:59:14.720Z,75.6468
2023-04-18T11:00:15.336Z,75.7464
2023-04-18T11:01:16.508Z,75.2679
2023-04-18T11:02:17.603Z,75.0618
2023-04-18T11:03:17.709Z,74.3807
2023-04-18T11:04:18.092Z,73.7503
2023-04-18T11:05:17.953Z,74.4896
2023-04-18T11:06:18.691Z,73.9733
2023-04-18T11:07:19.181Z,73.2923
2023-04-18T11:08:19.848Z,72.6548
2023-04-18T11:09:20.429Z,73.7626
2023-04-18T11:10:21.025Z,74.1693
2023-04-18T11:11:22.244Z,74.3749
2023-04-18T11:12:22.776Z,74.5211
2023-04-18T11:13:22.822Z,74.3334
2023-04-18T11:14:23.601Z,74.8845
2023-04-18T11:15:24.430Z,75.2623
2023-04-18T11:16:25.177Z,75.0354
2023-04-18T11:17:26.241Z,74.9827
2023-04-18T11:18:26.283Z,74.5799
2023-04-18T11:19:27.093Z,74.2306
2023-04-18T11:20:28.255Z,73.9451
2023-04-18T11:21:30.463Z,74.1391
2023-04-18T11:22:29.087Z,73.6514
2023-04-18T11:23:30.062Z,73.7533
2023-04-18T11:24:30.015Z,73.2864
2023-04-18T11:25:30.710Z,72.6505
2023-04-18T11:26:31.384Z,73.0627
2023-04-18T11:27:31.585Z,73.2508
2023-04-18T11:28:32.468Z,74.0169
2023-04-18T11:29:33.174Z,74.1736
2023-04-18T11:30:33.957Z,73.3863
2023-04-18T11:31:34.962Z,73.6094
2023-04-18T11:32:35.011Z,73.6848
2023-04-18T11:33:35.795Z,74.1902
2023-04-18T11:34:36.541Z,74.1699
2023-04-18T11:35:37.296Z,73.9696
2023-04-18T11:36:37.735Z,73.7461
2023-04-18T11:37:38.487Z,73.3580
2023-04-18T11:38:39.288Z,73.4022
2023-04-18T11:39:39.850Z,72.6316
2023-04-18T11:40:40.650Z,73.0595
2023-04-18T11:41:41.057Z,72.6240
2023-04-18T11:42:41.810Z,72.3803
2023-04-18T11:43:42.530Z,71.7092
2023-04-18T11:44:43.329Z,71.1280
2023-04-18T11:45:43.967Z,71.3043
2023-04-18T11:46:45.035Z,70.8487
2023-04-18T11:47:45.606Z,70.3630
2023-04-18T11:48:46.248Z,70.5772
2023-04-18T11:49:47.362Z,68.7541
2023-04-18T11:50:48.629Z,68.4656
2023-04-18T11:51:49.880Z,68.1718
2023-04-18T11:52:51.139Z,67.5407
2023-04-18T11:53:52.225Z,67.9876
2023-04-18T11:54:52.823Z,68.1032
2023-04-18T11:55:53.394Z,68.3222
2023-04-18T11:56:54.297Z,67.7640
2023-04-18T11:57:55.005Z,67.4181
2023-04-18T11:58:56.171Z,67.1200
2023-04-18T11:59:57.043Z,66.0857
2023-04-18T12:00:57.256Z,68.1147
2023-04-18T12:01:58.904Z,69.2095
2023-04-18T12:02:58.426Z,69.2705
2023-04-18T12:05:59.406Z,67.0957
2023-04-18T12:06:59.531Z,66.9679
2023-04-18T12:08:00.502Z,66.0616
2023-04-18T12:09:00.940Z,65.7962
2023-04-18T12:10:01.838Z,65.1433
2023-04-18T12:11:02.902Z,62.8942
2023-04-18T12:12:03.693Z,62.5039
2023-04-18T12:13:04.633Z,63.8102
2023-04-18T12:14:05.882Z,63.7725
2023-04-18T12:15:06.410Z,64.5828
2023-04-18T12:16:06.210Z,64.8487
2023-04-18T12:17:06.987Z,65.4267
2023-04-18T12:18:07.100Z,65.4869
2023-04-18T12:19:07.902Z,65.4177
2023-04-18T12:20:09.051Z,66.1044
2023-04-18T12:21:09.542Z,65.5187
2023-04-18T12:22:09.692Z,66.1940